sensor_id;sensor_type;location;lat;lon;timestamp;temperature;humidity
18733;DHT22;9495;51.210;2.934;2022-08-25T00:01:23;24.90;99.90
18733;DHT22;9495;51.210;2.934;2022-08-25T00:03:56;24.90;99.90
18733;DHT22;9495;51.210;2.934;2022-08-25T00:06:27;24.90;99.90
18733;DHT22;9495;51.210;2.934;2022-08-25T00:08:56;24.80;99.90
18733;DHT22;9495;51.210;2.934;2022-08-25T00:11:28;24.70;99.90
18733;DHT22;9495;51.210;2.934;2022-08-25T00:13:59;24.90;99.90
18733;DHT22;9495;51.210;2.934;2022-08-25T00:16:28;24.90;99.90
18733;DHT22;9495;51.210;2.934;2022-08-25T00:18:59;24.90;99.90
18733;DHT22;9495;51.210;2.934;2022-08-25T00:21:28;24.70;99.90
18733;DHT22;9495;51.210;2.934;2022-08-25T00:23:58;24.60;99.90
18733;DHT22;9495;51.210;2.934;2022-08-25T00:26:28;24.70;99.90
18733;DHT22;9495;51.210;2.934;2022-08-25T00:28:57;24.80;99.90
18733;DHT22;9495;51.210;2.934;2022-08-25T00:31:28;24.70;99.90
18733;DHT22;9495;51.210;2.934;2022-08-25T00:34:06;24.60;99.90
18733;DHT22;9495;51.210;2.934;2022-08-25T00:36:36;24.60;99.90
18733;DHT22;9495;51.210;2.934;2022-08-25T00:39:06;24.50;99.90
18733;DHT22;9495;51.210;2.934;2022-08-25T00:41:36;24.60;99.90
18733;DHT22;9495;51.210;2.934;2022-08-25T00:44:06;24.50;99.90
18733;DHT22;9495;51.210;2.934;2022-08-25T00:46:37;24.50;99.90
18733;DHT22;9495;51.210;2.934;2022-08-25T00:49:07;24.40;99.90
18733;DHT22;9495;51.210;2.934;2022-08-25T00:51:56;24.40;99.90
18733;DHT22;9495;51.210;2.934;2022-08-25T00:54:29;24.30;99.90
18733;DHT22;9495;51.210;2.934;2022-08-25T00:56:59;24.40;99.90
18733;DHT22;9495;51.210;2.934;2022-08-25T00:59:29;24.30;99.90
18733;DHT22;9495;51.210;2.934;2022-08-25T01:01:58;24.20;99.90
18733;DHT22;9495;51.210;2.934;2022-08-25T01:04:26;24.20;99.90
18733;DHT22;9495;51.210;2.934;2022-08-25T01:06:57;24.10;99.90
18733;DHT22;9495;51.210;2.934;2022-08-25T01:09:28;24.20;99.90
18733;DHT22;9495;51.210;2.934;2022-08-25T01:11:58;24.20;99.90
18733;DHT22;9495;51.210;2.934;2022-08-25T01:14:27;24.20;99.90
18733;DHT22;9495;51.210;2.934;2022-08-25T01:16:58;24.10;99.90
18733;DHT22;9495;51.210;2.934;2022-08-25T01:19:28;24.00;99.90
18733;DHT22;9495;51.210;2.934;2022-08-25T01:22:00;24.00;99.90
18733;DHT22;9495;51.210;2.934;2022-08-25T01:24:34;24.00;99.90
18733;DHT22;9495;51.210;2.934;2022-08-25T01:27:04;23.90;99.90
18733;DHT22;9495;51.210;2.934;2022-08-25T01:29:33;23.80;99.90
18733;DHT22;9495;51.210;2.934;2022-08-25T01:32:04;23.80;99.90
18733;DHT22;9495;51.210;2.934;2022-08-25T01:34:35;23.80;99.90
18733;DHT22;9495;51.210;2.934;2022-08-25T01:37:05;23.80;99.90
18733;DHT22;9495;51.210;2.934;2022-08-25T01:39:39;23.80;99.90
18733;DHT22;9495;51.210;2.934;2022-08-25T01:42:23;23.80;99.90
18733;DHT22;9495;51.210;2.934;2022-08-25T01:44:53;23.70;99.90
18733;DHT22;9495;51.210;2.934;2022-08-25T01:47:21;23.70;99.90
18733;DHT22;9495;51.210;2.934;2022-08-25T01:49:50;23.60;99.90
18733;DHT22;9495;51.210;2.934;2022-08-25T01:52:24;23.60;99.90
18733;DHT22;9495;51.210;2.934;2022-08-25T01:54:52;23.60;99.90
18733;DHT22;9495;51.210;2.934;2022-08-25T01:57:21;23.60;99.90
18733;DHT22;9495;51.210;2.934;2022-08-25T01:59:49;23.50;99.90
18733;DHT22;9495;51.210;2.934;2022-08-25T02:02:17;23.40;99.90
18733;DHT22;9495;51.210;2.934;2022-08-25T02:04:46;23.40;99.90
18733;DHT22;9495;51.210;2.934;2022-08-25T02:07:16;23.40;99.90
18733;DHT22;9495;51.210;2.934;2022-08-25T02:09:46;23.40;99.90
18733;DHT22;9495;51.210;2.934;2022-08-25T02:12:15;23.30;99.90
18733;DHT22;9495;51.210;2.934;2022-08-25T02:14:44;23.30;99.90
18733;DHT22;9495;51.210;2.934;2022-08-25T02:17:12;23.20;99.90
18733;DHT22;9495;51.210;2.934;2022-08-25T02:19:40;23.20;99.90
18733;DHT22;9495;51.210;2.934;2022-08-25T02:22:09;23.20;99.90
18733;DHT22;9495;51.210;2.934;2022-08-25T02:24:37;23.10;99.90
18733;DHT22;9495;51.210;2.934;2022-08-25T02:27:07;23.20;99.90
18733;DHT22;9495;51.210;2.934;2022-08-25T02:29:37;23.20;99.90
18733;DHT22;9495;51.210;2.934;2022-08-25T02:32:06;23.20;99.90
18733;DHT22;9495;51.210;2.934;2022-08-25T02:34:36;23.10;99.90
18733;DHT22;9495;51.210;2.934;2022-08-25T02:37:07;23.10;99.90
18733;DHT22;9495;51.210;2.934;2022-08-25T02:39:35;23.10;99.90
18733;DHT22;9495;51.210;2.934;2022-08-25T02:42:04;23.10;99.90
18733;DHT22;9495;51.210;2.934;2022-08-25T02:44:34;23.10;99.90
18733;DHT22;9495;51.210;2.934;2022-08-25T02:47:03;23.00;99.90
18733;DHT22;9495;51.210;2.934;2022-08-25T02:49:32;23.00;99.90
18733;DHT22;9495;51.210;2.934;2022-08-25T02:52:01;23.10;99.90
18733;DHT22;9495;51.210;2.934;2022-08-25T02:54:30;23.10;99.90
18733;DHT22;9495;51.210;2.934;2022-08-25T02:56:58;23.30;99.90
18733;DHT22;9495;51.210;2.934;2022-08-25T02:59:26;23.60;99.90
18733;DHT22;9495;51.210;2.934;2022-08-25T03:01:56;23.80;99.90
18733;DHT22;9495;51.210;2.934;2022-08-25T03:04:25;24.00;99.90
18733;DHT22;9495;51.210;2.934;2022-08-25T03:06:54;24.10;99.90
18733;DHT22;9495;51.210;2.934;2022-08-25T03:09:23;24.30;99.90
18733;DHT22;9495;51.210;2.934;2022-08-25T03:11:51;24.40;99.90
18733;DHT22;9495;51.210;2.934;2022-08-25T03:14:20;24.40;99.90
18733;DHT22;9495;51.210;2.934;2022-08-25T03:16:49;24.40;99.90
18733;DHT22;9495;51.210;2.934;2022-08-25T03:19:18;24.30;99.90
18733;DHT22;9495;51.210;2.934;2022-08-25T03:21:47;24.10;99.90
18733;DHT22;9495;51.210;2.934;2022-08-25T03:24:18;24.00;99.90
18733;DHT22;9495;51.210;2.934;2022-08-25T03:26:46;23.90;99.90
18733;DHT22;9495;51.210;2.934;2022-08-25T03:29:21;23.90;99.90
18733;DHT22;9495;51.210;2.934;2022-08-25T03:31:49;23.70;99.90
18733;DHT22;9495;51.210;2.934;2022-08-25T03:34:21;23.50;99.90
18733;DHT22;9495;51.210;2.934;2022-08-25T03:36:51;23.50;99.90
18733;DHT22;9495;51.210;2.934;2022-08-25T03:39:21;23.70;99.90
18733;DHT22;9495;51.210;2.934;2022-08-25T03:41:50;23.90;99.90
18733;DHT22;9495;51.210;2.934;2022-08-25T03:44:20;24.10;99.90
18733;DHT22;9495;51.210;2.934;2022-08-25T03:46:50;24.20;99.90
18733;DHT22;9495;51.210;2.934;2022-08-25T03:49:21;24.20;99.90
18733;DHT22;9495;51.210;2.934;2022-08-25T03:51:52;24.10;99.90
18733;DHT22;9495;51.210;2.934;2022-08-25T03:54:23;24.10;99.90
18733;DHT22;9495;51.210;2.934;2022-08-25T03:56:51;24.00;99.90
18733;DHT22;9495;51.210;2.934;2022-08-25T03:59:20;23.70;99.90
18733;DHT22;9495;51.210;2.934;2022-08-25T04:01:48;23.60;99.90
18733;DHT22;9495;51.210;2.934;2022-08-25T04:04:23;23.30;99.90
18733;DHT22;9495;51.210;2.934;2022-08-25T04:06:51;23.20;99.90
18733;DHT22;9495;51.210;2.934;2022-08-25T04:09:20;23.00;99.90
18733;DHT22;9495;51.210;2.934;2022-08-25T04:11:49;22.90;99.90
18733;DHT22;9495;51.210;2.934;2022-08-25T04:14:19;22.90;99.90
18733;DHT22;9495;51.210;2.934;2022-08-25T04:16:48;22.80;99.90
18733;DHT22;9495;51.210;2.934;2022-08-25T04:19:17;22.70;99.90
18733;DHT22;9495;51.210;2.934;2022-08-25T04:21:47;22.60;99.90
18733;DHT22;9495;51.210;2.934;2022-08-25T04:24:15;22.50;99.90
18733;DHT22;9495;51.210;2.934;2022-08-25T04:26:45;22.50;99.90
18733;DHT22;9495;51.210;2.934;2022-08-25T04:29:15;22.50;99.90
18733;DHT22;9495;51.210;2.934;2022-08-25T04:31:45;22.40;99.90
18733;DHT22;9495;51.210;2.934;2022-08-25T04:34:16;22.40;99.90
18733;DHT22;9495;51.210;2.934;2022-08-25T04:36:59;22.50;99.90
18733;DHT22;9495;51.210;2.934;2022-08-25T04:39:29;22.50;99.90
18733;DHT22;9495;51.210;2.934;2022-08-25T04:41:57;22.40;99.90
18733;DHT22;9495;51.210;2.934;2022-08-25T04:44:27;22.30;99.90
18733;DHT22;9495;51.210;2.934;2022-08-25T04:46:56;22.30;99.90
18733;DHT22;9495;51.210;2.934;2022-08-25T04:49:25;22.50;99.90
18733;DHT22;9495;51.210;2.934;2022-08-25T04:51:54;22.50;99.90
18733;DHT22;9495;51.210;2.934;2022-08-25T04:54:25;22.40;99.90
18733;DHT22;9495;51.210;2.934;2022-08-25T04:56:54;22.40;99.90
18733;DHT22;9495;51.210;2.934;2022-08-25T04:59:25;22.40;99.90
18733;DHT22;9495;51.210;2.934;2022-08-25T05:01:57;22.40;99.90
18733;DHT22;9495;51.210;2.934;2022-08-25T05:04:29;22.40;99.90
18733;DHT22;9495;51.210;2.934;2022-08-25T05:06:58;22.40;99.90
18733;DHT22;9495;51.210;2.934;2022-08-25T05:09:28;22.30;99.90
18733;DHT22;9495;51.210;2.934;2022-08-25T05:11:58;22.30;99.90
18733;DHT22;9495;51.210;2.934;2022-08-25T05:14:28;22.30;99.90
18733;DHT22;9495;51.210;2.934;2022-08-25T05:16:56;22.50;99.90
18733;DHT22;9495;51.210;2.934;2022-08-25T05:19:25;22.40;99.90
18733;DHT22;9495;51.210;2.934;2022-08-25T05:21:54;22.50;99.90
18733;DHT22;9495;51.210;2.934;2022-08-25T05:24:24;22.50;99.90
18733;DHT22;9495;51.210;2.934;2022-08-25T05:26:55;22.50;99.90
18733;DHT22;9495;51.210;2.934;2022-08-25T05:29:24;22.70;99.90
18733;DHT22;9495;51.210;2.934;2022-08-25T05:31:52;22.70;99.90
18733;DHT22;9495;51.210;2.934;2022-08-25T05:34:21;22.70;99.90
18733;DHT22;9495;51.210;2.934;2022-08-25T05:36:50;22.60;99.90
18733;DHT22;9495;51.210;2.934;2022-08-25T05:39:19;22.90;99.90
18733;DHT22;9495;51.210;2.934;2022-08-25T05:41:47;22.90;99.90
18733;DHT22;9495;51.210;2.934;2022-08-25T05:44:17;22.90;99.90
18733;DHT22;9495;51.210;2.934;2022-08-25T05:46:47;23.00;99.90
18733;DHT22;9495;51.210;2.934;2022-08-25T05:49:15;22.80;99.90
18733;DHT22;9495;51.210;2.934;2022-08-25T05:51:44;22.90;99.90
18733;DHT22;9495;51.210;2.934;2022-08-25T05:54:12;23.00;99.90
18733;DHT22;9495;51.210;2.934;2022-08-25T05:56:41;23.20;99.90
18733;DHT22;9495;51.210;2.934;2022-08-25T05:59:11;23.30;99.90
18733;DHT22;9495;51.210;2.934;2022-08-25T06:01:41;23.40;99.90
18733;DHT22;9495;51.210;2.934;2022-08-25T06:04:35;23.40;99.90
18733;DHT22;9495;51.210;2.934;2022-08-25T06:07:07;23.50;99.90
18733;DHT22;9495;51.210;2.934;2022-08-25T06:09:36;23.50;99.90
18733;DHT22;9495;51.210;2.934;2022-08-25T06:12:06;23.60;99.90
18733;DHT22;9495;51.210;2.934;2022-08-25T06:14:35;24.20;99.90
18733;DHT22;9495;51.210;2.934;2022-08-25T06:17:04;24.60;99.90
18733;DHT22;9495;51.210;2.934;2022-08-25T06:19:33;24.70;99.90
18733;DHT22;9495;51.210;2.934;2022-08-25T06:22:07;24.90;99.90
18733;DHT22;9495;51.210;2.934;2022-08-25T06:24:35;24.90;99.90
18733;DHT22;9495;51.210;2.934;2022-08-25T06:27:04;24.90;99.90
18733;DHT22;9495;51.210;2.934;2022-08-25T06:29:32;25.00;99.90
18733;DHT22;9495;51.210;2.934;2022-08-25T06:32:01;25.00;99.90
18733;DHT22;9495;51.210;2.934;2022-08-25T06:34:30;25.00;99.90
18733;DHT22;9495;51.210;2.934;2022-08-25T06:36:59;25.00;99.90
18733;DHT22;9495;51.210;2.934;2022-08-25T06:39:28;25.10;99.90
18733;DHT22;9495;51.210;2.934;2022-08-25T06:41:56;25.00;99.90
18733;DHT22;9495;51.210;2.934;2022-08-25T06:44:24;25.10;99.90
18733;DHT22;9495;51.210;2.934;2022-08-25T06:46:54;25.10;99.90
18733;DHT22;9495;51.210;2.934;2022-08-25T06:49:23;25.10;99.90
18733;DHT22;9495;51.210;2.934;2022-08-25T06:52:01;25.10;99.90
18733;DHT22;9495;51.210;2.934;2022-08-25T06:54:30;25.10;99.90
18733;DHT22;9495;51.210;2.934;2022-08-25T06:56:58;25.10;99.90
18733;DHT22;9495;51.210;2.934;2022-08-25T06:59:27;25.10;99.90
18733;DHT22;9495;51.210;2.934;2022-08-25T07:01:58;25.10;99.90
18733;DHT22;9495;51.210;2.934;2022-08-25T07:04:29;25.20;99.90
18733;DHT22;9495;51.210;2.934;2022-08-25T07:06:57;25.10;99.90
18733;DHT22;9495;51.210;2.934;2022-08-25T07:09:27;25.20;99.90
18733;DHT22;9495;51.210;2.934;2022-08-25T07:11:55;25.20;99.90
18733;DHT22;9495;51.210;2.934;2022-08-25T07:14:23;25.20;99.90
18733;DHT22;9495;51.210;2.934;2022-08-25T07:16:52;25.30;99.90
18733;DHT22;9495;51.210;2.934;2022-08-25T07:19:20;25.30;99.90
18733;DHT22;9495;51.210;2.934;2022-08-25T07:21:50;25.30;99.90
18733;DHT22;9495;51.210;2.934;2022-08-25T07:24:19;25.40;99.90
18733;DHT22;9495;51.210;2.934;2022-08-25T07:26:49;25.30;99.90
18733;DHT22;9495;51.210;2.934;2022-08-25T07:29:19;25.30;99.90
18733;DHT22;9495;51.210;2.934;2022-08-25T07:31:59;25.30;99.90
18733;DHT22;9495;51.210;2.934;2022-08-25T07:34:29;25.30;99.90
18733;DHT22;9495;51.210;2.934;2022-08-25T07:37:19;25.30;99.90
18733;DHT22;9495;51.210;2.934;2022-08-25T07:40:09;25.30;99.90
18733;DHT22;9495;51.210;2.934;2022-08-25T07:42:39;25.30;99.90
18733;DHT22;9495;51.210;2.934;2022-08-25T07:45:09;25.40;99.90
18733;DHT22;9495;51.210;2.934;2022-08-25T07:47:38;25.40;99.90
18733;DHT22;9495;51.210;2.934;2022-08-25T07:50:08;25.40;99.90
18733;DHT22;9495;51.210;2.934;2022-08-25T07:52:38;25.40;99.90
18733;DHT22;9495;51.210;2.934;2022-08-25T07:55:08;25.40;99.90
18733;DHT22;9495;51.210;2.934;2022-08-25T07:57:39;25.40;99.90
18733;DHT22;9495;51.210;2.934;2022-08-25T08:00:09;25.40;99.90
18733;DHT22;9495;51.210;2.934;2022-08-25T08:02:38;25.40;99.90
18733;DHT22;9495;51.210;2.934;2022-08-25T08:05:08;25.40;99.90
18733;DHT22;9495;51.210;2.934;2022-08-25T08:07:37;25.40;99.90
18733;DHT22;9495;51.210;2.934;2022-08-25T08:10:11;25.40;99.90
18733;DHT22;9495;51.210;2.934;2022-08-25T08:13:01;25.40;99.90
18733;DHT22;9495;51.210;2.934;2022-08-25T08:15:33;25.40;99.90
18733;DHT22;9495;51.210;2.934;2022-08-25T08:18:03;25.50;99.90
18733;DHT22;9495;51.210;2.934;2022-08-25T08:20:33;25.50;99.90
18733;DHT22;9495;51.210;2.934;2022-08-25T08:23:09;25.50;99.90
18733;DHT22;9495;51.210;2.934;2022-08-25T08:25:37;25.50;99.90
18733;DHT22;9495;51.210;2.934;2022-08-25T08:28:07;25.50;99.90
18733;DHT22;9495;51.210;2.934;2022-08-25T08:30:36;25.50;99.90
18733;DHT22;9495;51.210;2.934;2022-08-25T08:33:05;25.50;99.90
18733;DHT22;9495;51.210;2.934;2022-08-25T08:35:37;25.40;99.90
18733;DHT22;9495;51.210;2.934;2022-08-25T08:38:07;25.50;99.90
18733;DHT22;9495;51.210;2.934;2022-08-25T08:40:48;25.50;99.90
18733;DHT22;9495;51.210;2.934;2022-08-25T08:43:43;25.40;99.90
18733;DHT22;9495;51.210;2.934;2022-08-25T08:46:15;25.50;99.90
18733;DHT22;9495;51.210;2.934;2022-08-25T08:48:50;25.60;99.90
18733;DHT22;9495;51.210;2.934;2022-08-25T08:51:26;25.60;99.90
18733;DHT22;9495;51.210;2.934;2022-08-25T08:54:04;25.60;99.90
18733;DHT22;9495;51.210;2.934;2022-08-25T08:56:44;25.60;99.90
18733;DHT22;9495;51.210;2.934;2022-08-25T08:59:18;25.60;99.90
18733;DHT22;9495;51.210;2.934;2022-08-25T09:01:49;25.60;99.90
18733;DHT22;9495;51.210;2.934;2022-08-25T09:04:28;25.60;99.90
18733;DHT22;9495;51.210;2.934;2022-08-25T09:07:00;25.40;99.90
18733;DHT22;9495;51.210;2.934;2022-08-25T09:09:31;25.50;99.90
18733;DHT22;9495;51.210;2.934;2022-08-25T09:12:10;25.40;99.90
18733;DHT22;9495;51.210;2.934;2022-08-25T09:14:53;25.50;99.90
18733;DHT22;9495;51.210;2.934;2022-08-25T09:17:37;25.50;99.90
18733;DHT22;9495;51.210;2.934;2022-08-25T09:20:37;25.40;99.90
18733;DHT22;9495;51.210;2.934;2022-08-25T09:23:25;25.30;99.90
18733;DHT22;9495;51.210;2.934;2022-08-25T09:26:02;25.40;99.90
18733;DHT22;9495;51.210;2.934;2022-08-25T09:28:41;25.20;99.90
18733;DHT22;9495;51.210;2.934;2022-08-25T09:31:16;25.10;99.90
18733;DHT22;9495;51.210;2.934;2022-08-25T09:33:45;25.00;99.90
18733;DHT22;9495;51.210;2.934;2022-08-25T09:36:16;25.00;99.90
18733;DHT22;9495;51.210;2.934;2022-08-25T09:38:45;25.20;99.90
18733;DHT22;9495;51.210;2.934;2022-08-25T09:41:15;25.10;99.90
18733;DHT22;9495;51.210;2.934;2022-08-25T09:43:52;25.10;99.90
18733;DHT22;9495;51.210;2.934;2022-08-25T09:46:25;25.20;99.90
18733;DHT22;9495;51.210;2.934;2022-08-25T09:48:55;25.20;99.90
18733;DHT22;9495;51.210;2.934;2022-08-25T09:51:26;25.10;99.90
18733;DHT22;9495;51.210;2.934;2022-08-25T09:54:08;25.10;99.90
18733;DHT22;9495;51.210;2.934;2022-08-25T09:56:49;25.20;99.90
18733;DHT22;9495;51.210;2.934;2022-08-25T09:59:19;25.10;99.90
18733;DHT22;9495;51.210;2.934;2022-08-25T10:02:24;25.20;99.90
18733;DHT22;9495;51.210;2.934;2022-08-25T10:04:53;25.30;99.90
18733;DHT22;9495;51.210;2.934;2022-08-25T10:07:26;25.20;99.90
18733;DHT22;9495;51.210;2.934;2022-08-25T10:09:56;25.20;99.90
18733;DHT22;9495;51.210;2.934;2022-08-25T10:12:29;25.10;99.90
18733;DHT22;9495;51.210;2.934;2022-08-25T10:15:06;25.10;99.90
18733;DHT22;9495;51.210;2.934;2022-08-25T10:18:18;25.30;99.90
18733;DHT22;9495;51.210;2.934;2022-08-25T10:21:11;25.40;99.90
18733;DHT22;9495;51.210;2.934;2022-08-25T10:23:43;25.20;99.90
18733;DHT22;9495;51.210;2.934;2022-08-25T10:26:21;25.30;99.90
18733;DHT22;9495;51.210;2.934;2022-08-25T10:29:01;25.50;99.90
18733;DHT22;9495;51.210;2.934;2022-08-25T10:31:35;25.60;99.90
18733;DHT22;9495;51.210;2.934;2022-08-25T10:34:18;25.70;99.90
18733;DHT22;9495;51.210;2.934;2022-08-25T10:36:55;25.60;99.90
18733;DHT22;9495;51.210;2.934;2022-08-25T10:39:34;25.70;99.90
18733;DHT22;9495;51.210;2.934;2022-08-25T10:42:21;25.60;99.90
18733;DHT22;9495;51.210;2.934;2022-08-25T10:45:08;25.50;99.90
18733;DHT22;9495;51.210;2.934;2022-08-25T10:48:12;25.60;99.90
18733;DHT22;9495;51.210;2.934;2022-08-25T10:50:49;25.60;99.90
18733;DHT22;9495;51.210;2.934;2022-08-25T10:53:26;25.40;99.90
18733;DHT22;9495;51.210;2.934;2022-08-25T10:56:03;25.40;99.90
18733;DHT22;9495;51.210;2.934;2022-08-25T10:59:09;25.30;99.90
18733;DHT22;9495;51.210;2.934;2022-08-25T11:01:55;25.40;99.90
18733;DHT22;9495;51.210;2.934;2022-08-25T11:04:30;25.60;99.90
18733;DHT22;9495;51.210;2.934;2022-08-25T11:07:07;25.70;99.90
18733;DHT22;9495;51.210;2.934;2022-08-25T11:09:39;25.80;99.90
18733;DHT22;9495;51.210;2.934;2022-08-25T11:12:10;25.90;99.90
18733;DHT22;9495;51.210;2.934;2022-08-25T11:14:47;25.90;99.90
18733;DHT22;9495;51.210;2.934;2022-08-25T11:17:21;25.60;99.90
18733;DHT22;9495;51.210;2.934;2022-08-25T11:19:54;25.70;99.90
18733;DHT22;9495;51.210;2.934;2022-08-25T11:22:29;25.40;99.90
18733;DHT22;9495;51.210;2.934;2022-08-25T11:25:08;25.50;99.90
18733;DHT22;9495;51.210;2.934;2022-08-25T11:27:46;25.70;99.90
18733;DHT22;9495;51.210;2.934;2022-08-25T11:30:17;25.60;99.90
18733;DHT22;9495;51.210;2.934;2022-08-25T11:32:48;25.40;99.90
18733;DHT22;9495;51.210;2.934;2022-08-25T11:35:19;25.30;99.90
18733;DHT22;9495;51.210;2.934;2022-08-25T11:38:03;25.40;99.90
18733;DHT22;9495;51.210;2.934;2022-08-25T11:40:59;25.70;99.90
18733;DHT22;9495;51.210;2.934;2022-08-25T11:43:53;25.70;99.90
18733;DHT22;9495;51.210;2.934;2022-08-25T11:46:30;25.50;99.90
18733;DHT22;9495;51.210;2.934;2022-08-25T11:49:21;25.40;99.90
18733;DHT22;9495;51.210;2.934;2022-08-25T11:51:52;25.40;99.90
18733;DHT22;9495;51.210;2.934;2022-08-25T11:54:35;25.70;99.90
18733;DHT22;9495;51.210;2.934;2022-08-25T11:57:15;25.80;99.90
18733;DHT22;9495;51.210;2.934;2022-08-25T12:00:34;25.90;99.90
18733;DHT22;9495;51.210;2.934;2022-08-25T12:06:17;25.90;99.90
18733;DHT22;9495;51.210;2.934;2022-08-25T12:09:19;26.00;99.90
18733;DHT22;9495;51.210;2.934;2022-08-25T12:11:51;25.80;99.90
18733;DHT22;9495;51.210;2.934;2022-08-25T12:14:41;25.90;99.90
18733;DHT22;9495;51.210;2.934;2022-08-25T12:17:36;25.80;99.90
18733;DHT22;9495;51.210;2.934;2022-08-25T12:20:06;25.90;99.90
18733;DHT22;9495;51.210;2.934;2022-08-25T12:22:54;25.90;99.90
18733;DHT22;9495;51.210;2.934;2022-08-25T12:25:31;25.90;99.90
18733;DHT22;9495;51.210;2.934;2022-08-25T12:28:05;26.00;99.90
18733;DHT22;9495;51.210;2.934;2022-08-25T12:30:43;26.00;99.90
18733;DHT22;9495;51.210;2.934;2022-08-25T12:33:22;25.90;99.90
18733;DHT22;9495;51.210;2.934;2022-08-25T12:35:57;25.90;99.90
18733;DHT22;9495;51.210;2.934;2022-08-25T12:38:30;25.70;99.90
18733;DHT22;9495;51.210;2.934;2022-08-25T12:41:05;25.80;99.90
18733;DHT22;9495;51.210;2.934;2022-08-25T12:43:37;25.80;99.90
18733;DHT22;9495;51.210;2.934;2022-08-25T12:46:34;25.80;99.90
18733;DHT22;9495;51.210;2.934;2022-08-25T12:49:10;25.80;99.90
18733;DHT22;9495;51.210;2.934;2022-08-25T12:51:51;25.80;99.90
18733;DHT22;9495;51.210;2.934;2022-08-25T12:54:42;25.70;99.90
18733;DHT22;9495;51.210;2.934;2022-08-25T12:57:35;25.60;99.90
18733;DHT22;9495;51.210;2.934;2022-08-25T13:00:15;25.80;99.90
18733;DHT22;9495;51.210;2.934;2022-08-25T13:03:18;25.90;99.90
18733;DHT22;9495;51.210;2.934;2022-08-25T13:06:07;25.70;99.90
18733;DHT22;9495;51.210;2.934;2022-08-25T13:09:04;25.70;99.90
18733;DHT22;9495;51.210;2.934;2022-08-25T13:11:40;25.70;99.90
18733;DHT22;9495;51.210;2.934;2022-08-25T13:14:17;25.70;99.90
18733;DHT22;9495;51.210;2.934;2022-08-25T13:16:57;25.80;99.90
18733;DHT22;9495;51.210;2.934;2022-08-25T13:19:26;25.90;99.90
18733;DHT22;9495;51.210;2.934;2022-08-25T13:22:08;25.80;99.90
18733;DHT22;9495;51.210;2.934;2022-08-25T13:24:43;25.80;99.90
18733;DHT22;9495;51.210;2.934;2022-08-25T13:27:20;25.90;99.90
18733;DHT22;9495;51.210;2.934;2022-08-25T13:29:50;26.00;99.90
18733;DHT22;9495;51.210;2.934;2022-08-25T13:32:27;25.80;99.90
18733;DHT22;9495;51.210;2.934;2022-08-25T13:35:11;25.80;99.90
18733;DHT22;9495;51.210;2.934;2022-08-25T13:37:43;25.60;99.90
18733;DHT22;9495;51.210;2.934;2022-08-25T13:40:14;25.50;99.90
18733;DHT22;9495;51.210;2.934;2022-08-25T13:42:45;25.20;99.90
18733;DHT22;9495;51.210;2.934;2022-08-25T13:45:23;25.20;99.90
18733;DHT22;9495;51.210;2.934;2022-08-25T13:47:53;25.30;99.90
18733;DHT22;9495;51.210;2.934;2022-08-25T13:50:32;25.10;99.90
18733;DHT22;9495;51.210;2.934;2022-08-25T13:53:05;24.60;99.90
18733;DHT22;9495;51.210;2.934;2022-08-25T13:55:40;24.80;99.90
18733;DHT22;9495;51.210;2.934;2022-08-25T13:58:20;25.20;99.90
18733;DHT22;9495;51.210;2.934;2022-08-25T14:01:10;25.20;99.90
18733;DHT22;9495;51.210;2.934;2022-08-25T14:04:23;25.40;99.90
18733;DHT22;9495;51.210;2.934;2022-08-25T14:07:12;25.10;99.90
18733;DHT22;9495;51.210;2.934;2022-08-25T14:09:48;25.30;99.90
18733;DHT22;9495;51.210;2.934;2022-08-25T14:12:37;24.90;99.90
18733;DHT22;9495;51.210;2.934;2022-08-25T14:15:10;24.60;99.90
18733;DHT22;9495;51.210;2.934;2022-08-25T14:17:41;24.90;99.90
18733;DHT22;9495;51.210;2.934;2022-08-25T14:20:17;24.70;99.90
18733;DHT22;9495;51.210;2.934;2022-08-25T14:22:47;25.20;99.90
18733;DHT22;9495;51.210;2.934;2022-08-25T14:25:16;24.90;99.90
18733;DHT22;9495;51.210;2.934;2022-08-25T14:27:44;25.00;99.90
18733;DHT22;9495;51.210;2.934;2022-08-25T14:30:42;24.70;99.90
18733;DHT22;9495;51.210;2.934;2022-08-25T14:33:14;25.20;99.90
18733;DHT22;9495;51.210;2.934;2022-08-25T14:35:49;25.50;99.90
18733;DHT22;9495;51.210;2.934;2022-08-25T14:38:20;24.90;99.90
18733;DHT22;9495;51.210;2.934;2022-08-25T14:40:49;24.90;99.90
18733;DHT22;9495;51.210;2.934;2022-08-25T14:43:18;24.40;99.90
18733;DHT22;9495;51.210;2.934;2022-08-25T14:45:50;24.20;99.90
18733;DHT22;9495;51.210;2.934;2022-08-25T14:48:24;24.20;99.90
18733;DHT22;9495;51.210;2.934;2022-08-25T14:50:56;24.30;99.90
18733;DHT22;9495;51.210;2.934;2022-08-25T14:53:25;24.40;99.90
18733;DHT22;9495;51.210;2.934;2022-08-25T14:55:54;24.60;99.90
18733;DHT22;9495;51.210;2.934;2022-08-25T14:58:25;24.60;99.90
18733;DHT22;9495;51.210;2.934;2022-08-25T15:01:00;24.80;99.90
18733;DHT22;9495;51.210;2.934;2022-08-25T15:03:31;25.10;99.90
18733;DHT22;9495;51.210;2.934;2022-08-25T15:06:04;25.40;99.90
18733;DHT22;9495;51.210;2.934;2022-08-25T15:08:33;25.50;99.90
18733;DHT22;9495;51.210;2.934;2022-08-25T15:11:20;25.10;99.90
18733;DHT22;9495;51.210;2.934;2022-08-25T15:13:48;25.10;99.90
18733;DHT22;9495;51.210;2.934;2022-08-25T15:16:21;25.50;99.90
18733;DHT22;9495;51.210;2.934;2022-08-25T15:19:00;25.60;99.90
18733;DHT22;9495;51.210;2.934;2022-08-25T15:21:34;25.40;99.90
18733;DHT22;9495;51.210;2.934;2022-08-25T15:24:03;25.40;99.90
18733;DHT22;9495;51.210;2.934;2022-08-25T15:26:36;25.00;99.90
18733;DHT22;9495;51.210;2.934;2022-08-25T15:29:07;25.40;99.90
18733;DHT22;9495;51.210;2.934;2022-08-25T15:31:36;25.20;99.90
18733;DHT22;9495;51.210;2.934;2022-08-25T15:34:06;25.50;99.90
18733;DHT22;9495;51.210;2.934;2022-08-25T15:36:39;25.60;99.90
18733;DHT22;9495;51.210;2.934;2022-08-25T15:39:08;25.50;99.90
18733;DHT22;9495;51.210;2.934;2022-08-25T15:41:37;25.50;99.90
18733;DHT22;9495;51.210;2.934;2022-08-25T15:44:08;25.00;99.90
18733;DHT22;9495;51.210;2.934;2022-08-25T15:46:39;24.80;99.90
18733;DHT22;9495;51.210;2.934;2022-08-25T15:49:15;25.00;99.90
18733;DHT22;9495;51.210;2.934;2022-08-25T15:51:50;25.20;99.90
18733;DHT22;9495;51.210;2.934;2022-08-25T15:54:20;25.00;99.90
18733;DHT22;9495;51.210;2.934;2022-08-25T15:56:49;25.00;99.90
18733;DHT22;9495;51.210;2.934;2022-08-25T15:59:18;24.80;99.90
18733;DHT22;9495;51.210;2.934;2022-08-25T16:01:47;24.70;99.90
18733;DHT22;9495;51.210;2.934;2022-08-25T16:04:20;24.60;99.90
18733;DHT22;9495;51.210;2.934;2022-08-25T16:06:51;24.50;99.90
18733;DHT22;9495;51.210;2.934;2022-08-25T16:09:21;24.70;99.90
18733;DHT22;9495;51.210;2.934;2022-08-25T16:11:50;24.80;99.90
18733;DHT22;9495;51.210;2.934;2022-08-25T16:14:25;24.60;99.90
18733;DHT22;9495;51.210;2.934;2022-08-25T16:16:54;24.40;99.90
18733;DHT22;9495;51.210;2.934;2022-08-25T16:19:25;24.50;99.90
18733;DHT22;9495;51.210;2.934;2022-08-25T16:21:56;24.60;99.90
18733;DHT22;9495;51.210;2.934;2022-08-25T16:24:25;24.80;99.90
18733;DHT22;9495;51.210;2.934;2022-08-25T16:26:54;24.80;99.90
18733;DHT22;9495;51.210;2.934;2022-08-25T16:29:38;25.00;99.90